createdAt,value
2019-01-30T00:00:08.180Z,20.1
2019-01-30T00:00:58.138Z,20.4
2019-01-30T00:01:48.297Z,20.6
2019-01-30T00:02:39.180Z,20.8
2019-01-30T00:03:28.863Z,20.9
2019-01-30T00:04:19.130Z,21.1
2019-01-30T00:05:08.435Z,21.2
2019-01-30T00:05:57.935Z,21.3
2019-01-30T00:06:47.975Z,21.4
2019-01-30T00:07:38.885Z,21.4
2019-01-30T00:08:28.370Z,21.6
2019-01-30T00:09:19.372Z,21.6
2019-01-30T00:10:09.374Z,21.7
2019-01-30T00:10:58.864Z,21.8
2019-01-30T00:11:49.190Z,21.9
2019-01-30T00:12:39.528Z,21.9
2019-01-30T00:13:29.007Z,22
2019-01-30T00:14:19.969Z,22.1
2019-01-30T00:15:09.404Z,22.1
2019-01-30T00:16:05.282Z,22.1
2019-01-30T00:16:49.483Z,22
2019-01-30T00:17:39.277Z,21.5
2019-01-30T00:18:30.484Z,21.1
2019-01-30T00:19:18.569Z,20.6
2019-01-30T00:20:09.582Z,20.4
2019-01-30T00:21:00.079Z,20.1
2019-01-30T00:21:49.339Z,19.9
2019-01-30T00:22:40.496Z,19.7
2019-01-30T00:23:30.039Z,19.6
2019-01-30T00:24:20.646Z,19.4
2019-01-30T00:25:09.799Z,19.3
2019-01-30T00:26:00.444Z,19.2
2019-01-30T00:26:49.676Z,19.1
2019-01-30T00:27:40.551Z,19.1
2019-01-30T00:28:30.609Z,19.6
2019-01-30T00:29:20.746Z,20.1
2019-01-30T00:30:12.663Z,20.5
2019-01-30T00:31:01.445Z,20.8
2019-01-30T00:31:50.025Z,21
2019-01-30T00:33:30.386Z,21.3
2019-01-30T00:34:20.792Z,21.4
2019-01-30T00:35:10.810Z,21.5
2019-01-30T00:36:00.913Z,21.6
2019-01-30T00:36:49.803Z,21.7
2019-01-30T00:37:40.671Z,21.8
2019-01-30T00:38:31.029Z,21.9
2019-01-30T00:39:21.058Z,21.9
2019-01-30T00:40:12.045Z,22
2019-01-30T00:41:00.496Z,22.1
2019-01-30T00:41:49.853Z,22.1
2019-01-30T00:42:40.800Z,22
2019-01-30T00:43:31.627Z,21.5
2019-01-30T00:44:20.650Z,21
2019-01-30T00:45:11.280Z,20.6
2019-01-30T00:46:01.543Z,20.4
2019-01-30T00:46:51.907Z,20.1
2019-01-30T00:47:43.927Z,19.9
2019-01-30T00:48:31.717Z,19.7
2019-01-30T00:49:20.980Z,19.6
2019-01-30T00:50:11.510Z,19.4
2019-01-30T00:51:01.590Z,19.3
2019-01-30T00:51:51.357Z,19.2
2019-01-30T00:52:42.097Z,19.1
2019-01-30T00:53:32.607Z,19.1
2019-01-30T00:54:31.715Z,19.5
2019-01-30T00:55:12.158Z,20.1
2019-01-30T00:56:02.610Z,20.4
2019-01-30T00:56:52.547Z,20.7
2019-01-30T00:57:42.885Z,20.9
2019-01-30T00:58:31.912Z,21.1
2019-01-30T00:59:22.424Z,21.2
2019-01-30T01:00:21.915Z,21.3
2019-01-30T01:01:04.549Z,21.4
2019-01-30T01:01:52.414Z,21.5
2019-01-30T01:02:42.212Z,21.6
2019-01-30T01:03:32.782Z,21.6
2019-01-30T01:04:23.361Z,21.7
2019-01-30T01:05:12.842Z,21.8
2019-01-30T01:06:02.638Z,21.8
2019-01-30T01:06:52.977Z,21.8
2019-01-30T01:07:43.597Z,21.9
2019-01-30T01:08:33.340Z,21.9
2019-01-30T01:09:23.996Z,21.9
2019-01-30T01:10:12.949Z,22
2019-01-30T01:11:02.674Z,21.7
2019-01-30T01:11:53.088Z,21.2
2019-01-30T01:12:43.368Z,20.8
2019-01-30T01:13:32.128Z,20.4
2019-01-30T01:14:23.038Z,20.2
2019-01-30T01:15:14.151Z,19.9
2019-01-30T01:16:03.431Z,19.8
2019-01-30T01:16:54.199Z,19.6
2019-01-30T01:17:42.921Z,19.5
2019-01-30T01:18:32.816Z,19.4
2019-01-30T01:19:23.660Z,19.3
2019-01-30T01:20:13.928Z,19.1
2019-01-30T01:21:03.428Z,19.1
2019-01-30T01:21:53.981Z,18.9
2019-01-30T01:22:43.293Z,18.8
2019-01-30T01:24:23.918Z,19.2
2019-01-30T01:25:13.733Z,19.8
2019-01-30T01:26:04.570Z,20.2
2019-01-30T01:26:54.605Z,20.5
2019-01-30T01:27:44.287Z,20.7
2019-01-30T01:28:34.534Z,20.9
2019-01-30T01:29:24.297Z,21
2019-01-30T01:30:24.488Z,21.1
2019-01-30T01:31:04.352Z,20.6
2019-01-30T01:31:55.048Z,20.1
2019-01-30T01:32:44.027Z,19.4
2019-01-30T01:33:34.838Z,18.9
2019-01-30T01:34:24.925Z,18.4
2019-01-30T01:35:13.330Z,17.8
2019-01-30T01:36:03.882Z,17.2
2019-01-30T01:37:45.089Z,17.1
2019-01-30T01:38:34.855Z,17.6
2019-01-30T01:39:24.951Z,18.2
2019-01-30T01:40:14.732Z,18.8
2019-01-30T01:41:04.755Z,19.3
2019-01-30T01:41:55.669Z,19.8
2019-01-30T01:42:45.992Z,20.2
2019-01-30T01:43:34.954Z,20.4
2019-01-30T01:44:25.857Z,20.7
2019-01-30T01:45:15.611Z,20.9
2019-01-30T01:46:06.253Z,21
2019-01-30T01:47:45.569Z,21.3
2019-01-30T01:48:36.196Z,21.4
2019-01-30T01:49:26.049Z,21.5
2019-01-30T01:50:16.246Z,21.6
2019-01-30T01:51:06.571Z,21.7
2019-01-30T01:51:56.606Z,21.8
2019-01-30T01:52:45.311Z,21.9
2019-01-30T01:53:35.363Z,21.9
2019-01-30T01:54:26.541Z,22
2019-01-30T01:55:16.354Z,22.1
2019-01-30T01:56:06.601Z,22.1
2019-01-30T01:56:56.780Z,22.1
2019-01-30T01:57:46.748Z,21.7
2019-01-30T01:58:36.246Z,21.2
2019-01-30T01:59:26.018Z,20.8
2019-01-30T02:00:16.096Z,20.4
2019-01-30T02:01:07.539Z,20.2
2019-01-30T02:01:56.460Z,19.9
2019-01-30T02:02:47.373Z,19.8
2019-01-30T02:03:37.420Z,19.6
2019-01-30T02:04:26.727Z,19.4
2019-01-30T02:05:17.083Z,19.3
2019-01-30T02:06:06.414Z,19.3
2019-01-30T02:06:56.335Z,19.2
2019-01-30T02:07:47.165Z,19
2019-01-30T02:08:37.018Z,18.8
2019-01-30T02:10:15.551Z,19.3
2019-01-30T02:11:07.765Z,19.8
2019-01-30T02:11:57.713Z,20.2
2019-01-30T02:12:46.764Z,20.5
2019-01-30T02:13:37.380Z,20.8
2019-01-30T02:14:27.534Z,20.9
2019-01-30T02:15:17.227Z,21.1
2019-01-30T02:16:07.472Z,21.2
2019-01-30T02:16:57.847Z,21.3
2019-01-30T02:17:48.151Z,21.4
2019-01-30T02:18:38.182Z,21.5
2019-01-30T02:19:28.327Z,21.6
2019-01-30T02:20:17.564Z,21.7
2019-01-30T02:21:08.092Z,21.8
2019-01-30T02:21:58.152Z,21.9
2019-01-30T02:22:48.200Z,21.9
2019-01-30T02:23:37.807Z,21.9
2019-01-30T02:24:28.394Z,22
2019-01-30T02:25:18.769Z,22.1
2019-01-30T02:26:08.416Z,21.7
2019-01-30T02:26:57.934Z,21.2
2019-01-30T02:27:49.147Z,20.8
2019-01-30T02:28:39.133Z,20.4
2019-01-30T02:29:28.811Z,20.2
2019-01-30T02:30:18.601Z,19.9
2019-01-30T02:31:08.884Z,19.8
2019-01-30T02:31:59.208Z,19.6
2019-01-30T02:32:49.199Z,19.4
2019-01-30T02:33:39.324Z,19.3
2019-01-30T02:34:28.768Z,19.2
2019-01-30T02:35:18.348Z,19.1
2019-01-30T02:36:07.103Z,19.1
2019-01-30T02:36:59.654Z,19.2
2019-01-30T02:37:48.488Z,19.8
2019-01-30T02:38:39.217Z,20.2
2019-01-30T02:39:29.428Z,20.5
2019-01-30T02:40:19.333Z,20.8
2019-01-30T02:41:09.888Z,20.9
2019-01-30T02:41:58.595Z,21.1
2019-01-30T02:43:39.184Z,21.3
2019-01-30T02:44:29.193Z,21.3
2019-01-30T02:45:20.215Z,21.4
2019-01-30T02:46:10.495Z,21.5
2019-01-30T02:46:59.890Z,21.5
2019-01-30T02:47:49.213Z,21.6
2019-01-30T02:48:39.892Z,21.6
2019-01-30T02:49:29.507Z,21.7
2019-01-30T02:50:19.867Z,21.8
2019-01-30T02:51:10.522Z,21.8
2019-01-30T02:52:00.845Z,21.8
2019-01-30T02:52:48.949Z,21.8
2019-01-30T02:53:40.212Z,21.9
2019-01-30T02:54:30.447Z,21.9
2019-01-30T02:55:20.573Z,21.9
2019-01-30T02:56:10.883Z,21.5
2019-01-30T02:57:00.849Z,21
2019-01-30T02:57:50.962Z,20.6
2019-01-30T02:58:41.232Z,20.3
2019-01-30T02:59:31.075Z,20.1
2019-01-30T03:00:21.321Z,19.9
2019-01-30T03:01:10.634Z,19.7
2019-01-30T03:02:00.614Z,19.5
2019-01-30T03:02:51.398Z,19.4
2019-01-30T03:03:41.161Z,19.3
2019-01-30T03:04:30.553Z,19.1
2019-01-30T03:05:21.306Z,19.1
2019-01-30T03:08:33.059Z,18.5
2019-01-30T03:09:22.234Z,19.1
2019-01-30T03:10:13.185Z,19.6
2019-01-30T03:11:02.740Z,20
2019-01-30T03:11:52.966Z,20.3
2019-01-30T03:12:43.286Z,20.5
2019-01-30T03:13:32.874Z,20.7
2019-01-30T03:14:22.933Z,20.8
2019-01-30T03:15:13.001Z,20.9
2019-01-30T03:16:02.961Z,21.1
2019-01-30T03:16:53.954Z,20.8
2019-01-30T03:17:43.601Z,20.3
2019-01-30T03:18:33.493Z,19.7
2019-01-30T03:19:22.648Z,19.2
2019-01-30T03:20:13.832Z,18.6
2019-01-30T03:21:03.840Z,18.1
2019-01-30T03:21:54.197Z,17.4
2019-01-30T03:22:43.687Z,16.8
2019-01-30T03:23:32.921Z,16.4
2019-01-30T03:24:23.451Z,16.5
2019-01-30T03:25:14.147Z,16.9
2019-01-30T03:26:04.603Z,17.6
2019-01-30T03:26:53.620Z,18.2
2019-01-30T03:28:33.115Z,19.3
2019-01-30T03:29:23.877Z,19.7
2019-01-30T03:30:14.692Z,20.1
2019-01-30T03:31:23.763Z,20.4
2019-01-30T03:31:54.674Z,20.7
2019-01-30T03:32:44.173Z,20.8
2019-01-30T03:33:34.546Z,20.9
2019-01-30T03:34:24.267Z,21.1
2019-01-30T03:35:14.679Z,21.2
2019-01-30T03:36:04.967Z,21.3
2019-01-30T03:36:54.944Z,21.4
2019-01-30T03:37:44.516Z,21.6
2019-01-30T03:38:34.794Z,21.6
2019-01-30T03:39:24.584Z,21.7
2019-01-30T03:40:14.371Z,21.8
2019-01-30T03:41:04.713Z,21.9
2019-01-30T03:41:55.029Z,21.9
2019-01-30T03:42:44.599Z,22
2019-01-30T03:43:35.420Z,22.1
2019-01-30T03:44:25.321Z,22.1
2019-01-30T03:45:15.163Z,21.9
2019-01-30T03:46:05.299Z,21.4
2019-01-30T03:46:54.898Z,20.9
2019-01-30T03:47:45.495Z,20.6
2019-01-30T03:48:35.166Z,20.3
2019-01-30T03:49:25.816Z,20.1
2019-01-30T03:50:15.544Z,19.8
2019-01-30T03:51:05.386Z,19.7
2019-01-30T03:51:56.386Z,19.5
2019-01-30T03:52:46.356Z,19.4
2019-01-30T03:53:35.856Z,19.3
2019-01-30T03:54:25.858Z,19.1
2019-01-30T03:55:16.388Z,19.1
2019-01-30T03:56:04.995Z,19.3
2019-01-30T03:56:56.033Z,19.8
2019-01-30T03:57:46.426Z,20.3
2019-01-30T03:58:36.495Z,20.6
2019-01-30T03:59:25.950Z,20.8
2019-01-30T04:00:16.266Z,21
2019-01-30T04:01:56.700Z,21.3
2019-01-30T04:02:46.701Z,21.4
2019-01-30T04:03:36.223Z,21.5
2019-01-30T04:04:26.924Z,21.6
2019-01-30T04:05:16.683Z,21.7
2019-01-30T04:06:06.678Z,21.8
2019-01-30T04:06:56.300Z,21.9
2019-01-30T04:07:46.545Z,21.9
2019-01-30T04:08:36.534Z,21.9
2019-01-30T04:09:26.415Z,22.1
2019-01-30T04:10:16.772Z,21.9
2019-01-30T04:11:07.060Z,21.4
2019-01-30T04:11:57.604Z,20.9
2019-01-30T04:12:47.403Z,20.6
2019-01-30T04:13:37.035Z,20.3
2019-01-30T04:14:27.005Z,20.1
2019-01-30T04:15:17.122Z,19.9
2019-01-30T04:16:07.609Z,19.7
2019-01-30T04:16:57.982Z,19.5
2019-01-30T04:17:47.932Z,19.4
2019-01-30T04:18:37.517Z,19.3
2019-01-30T04:19:27.324Z,19.2
2019-01-30T04:20:17.114Z,19.1
2019-01-30T04:21:07.679Z,18.9
2019-01-30T04:22:47.579Z,18.6
2019-01-30T04:23:38.289Z,19.1
2019-01-30T04:24:28.527Z,19.6
2019-01-30T04:25:32.882Z,20.1
2019-01-30T04:26:08.529Z,20.4
2019-01-30T04:26:58.683Z,20.6
2019-01-30T04:27:47.814Z,20.8
2019-01-30T04:28:38.629Z,21
2019-01-30T04:30:18.889Z,21.3
2019-01-30T04:31:08.659Z,21.4
2019-01-30T04:31:58.504Z,21.4
2019-01-30T04:32:47.749Z,21.6
2019-01-30T04:33:38.839Z,21.6
2019-01-30T04:34:29.327Z,21.7
2019-01-30T04:35:19.298Z,21.8
2019-01-30T04:36:08.532Z,21.8
2019-01-30T04:36:58.483Z,21.9
2019-01-30T04:37:49.431Z,21.9
2019-01-30T04:38:38.936Z,21.9
2019-01-30T04:39:29.722Z,22
2019-01-30T04:40:19.035Z,21.7
2019-01-30T04:41:09.106Z,21.3
2019-01-30T04:41:59.115Z,20.8
2019-01-30T04:42:49.092Z,20.4
2019-01-30T04:43:39.830Z,20.2
2019-01-30T04:44:29.355Z,19.9
2019-01-30T04:45:19.355Z,19.8
2019-01-30T04:46:09.957Z,19.6
2019-01-30T04:46:58.899Z,19.4
2019-01-30T04:47:49.639Z,19.3
2019-01-30T04:48:39.330Z,19.2
2019-01-30T04:49:30.196Z,19.1
2019-01-30T04:50:20.430Z,19.1
2019-01-30T04:51:09.764Z,19.2
2019-01-30T04:51:59.823Z,19.7
2019-01-30T04:52:49.645Z,20.1
2019-01-30T04:53:39.374Z,20.4
2019-01-30T04:54:29.989Z,20.7
2019-01-30T04:55:19.579Z,20.9
2019-01-30T04:56:10.330Z,21
2019-01-30T04:57:50.231Z,21.2
2019-01-30T04:58:40.352Z,21.3
2019-01-30T04:59:30.629Z,21.4
2019-01-30T05:00:20.682Z,21.4
2019-01-30T05:01:10.434Z,21
2019-01-30T05:02:00.794Z,20.4
2019-01-30T05:02:51.209Z,19.7
2019-01-30T05:03:39.808Z,19.2
2019-01-30T05:04:29.855Z,18.6
2019-01-30T05:05:20.837Z,18
2019-01-30T05:06:10.580Z,17.4
2019-01-30T05:07:01.456Z,16.9
2019-01-30T05:08:40.681Z,17.2
2019-01-30T05:09:30.875Z,17.9
2019-01-30T05:10:21.415Z,18.5
2019-01-30T05:11:11.621Z,19
2019-01-30T05:12:00.903Z,19.6
2019-01-30T05:12:51.631Z,20
2019-01-30T05:13:41.123Z,20.3
2019-01-30T05:14:30.508Z,20.6
2019-01-30T05:15:21.063Z,20.8
2019-01-30T05:16:11.085Z,20.9
2019-01-30T05:17:51.222Z,21.3
2019-01-30T05:18:41.370Z,21.4
2019-01-30T05:19:32.197Z,21.5
2019-01-30T05:20:21.310Z,21.6
2019-01-30T05:21:11.667Z,21.7
2019-01-30T05:22:01.581Z,21.8
2019-01-30T05:22:52.033Z,21.9
2019-01-30T05:23:42.416Z,21.9
2019-01-30T05:24:32.232Z,22
2019-01-30T05:25:22.231Z,22.1
2019-01-30T05:26:11.430Z,22
2019-01-30T05:27:02.517Z,21.4
2019-01-30T05:27:52.381Z,21
2019-01-30T05:28:42.657Z,20.6
2019-01-30T05:29:32.392Z,20.3
2019-01-30T05:30:22.205Z,20.1
2019-01-30T05:31:12.866Z,19.8
2019-01-30T05:32:09.914Z,19.6
2019-01-30T05:32:52.651Z,19.5
2019-01-30T05:33:42.682Z,19.4
2019-01-30T05:34:32.994Z,19.3
2019-01-30T05:35:23.221Z,19.1
2019-01-30T05:36:12.616Z,19.1
2019-01-30T05:37:02.587Z,18.9
2019-01-30T05:38:43.622Z,18.6
2019-01-30T05:39:33.105Z,19.1
2019-01-30T05:40:23.844Z,19.6
2019-01-30T05:41:13.464Z,20.1
2019-01-30T05:42:03.266Z,20.4
2019-01-30T05:42:53.593Z,20.6
2019-01-30T05:43:46.971Z,20.9
2019-01-30T05:44:33.581Z,21
2019-01-30T05:46:13.229Z,21.3
2019-01-30T05:47:04.131Z,21.4
2019-01-30T05:47:54.098Z,21.6
2019-01-30T05:48:43.993Z,21.6
2019-01-30T05:49:36.714Z,21.7
2019-01-30T05:50:23.829Z,21.8
2019-01-30T05:51:13.906Z,21.8
2019-01-30T05:52:04.486Z,21.9
2019-01-30T05:52:53.738Z,21.9
2019-01-30T05:53:44.565Z,22
2019-01-30T05:54:34.096Z,22.1
2019-01-30T05:55:24.221Z,21.9
2019-01-30T05:56:14.466Z,21.4
2019-01-30T05:57:04.568Z,20.9
2019-01-30T05:57:54.067Z,20.6
2019-01-30T05:58:43.988Z,20.3
2019-01-30T05:59:34.488Z,20.1
2019-01-30T06:00:24.207Z,19.8
2019-01-30T06:01:14.553Z,19.7
2019-01-30T06:02:18.447Z,19.5
2019-01-30T06:02:54.778Z,19.3
2019-01-30T06:03:45.280Z,19.3
2019-01-30T06:06:31.697Z,18.8
2019-01-30T06:07:21.838Z,18.6
2019-01-30T06:08:12.407Z,18.6
2019-01-30T06:09:02.390Z,19.1
2019-01-30T06:09:52.159Z,19.6
2019-01-30T06:10:42.517Z,20.1
2019-01-30T06:11:32.865Z,20.5
2019-01-30T06:12:22.617Z,20.7
2019-01-30T06:13:13.242Z,20.9
2019-01-30T06:14:03.030Z,21.1
2019-01-30T06:14:52.978Z,21.2
2019-01-30T06:15:43.784Z,21.3
2019-01-30T06:16:33.438Z,21.4
2019-01-30T06:17:22.684Z,21.5
2019-01-30T06:18:13.046Z,21.6
2019-01-30T06:19:02.886Z,21.7
2019-01-30T06:19:52.637Z,21.7
2019-01-30T06:20:42.981Z,21.8
2019-01-30T06:21:32.966Z,21.8
2019-01-30T06:22:23.324Z,21.9
2019-01-30T06:23:12.921Z,21.9
2019-01-30T06:24:04.106Z,21.9
2019-01-30T06:24:54.139Z,22
2019-01-30T06:25:43.917Z,21.5
2019-01-30T06:26:33.329Z,21
2019-01-30T06:27:24.548Z,20.6
2019-01-30T06:28:14.382Z,20.2
2019-01-30T06:29:02.647Z,19.9
2019-01-30T06:29:53.800Z,19.7
2019-01-30T06:30:44.144Z,19.5
2019-01-30T06:31:35.993Z,19.4
2019-01-30T06:32:30.643Z,19.2
2019-01-30T06:33:14.041Z,19.1
2019-01-30T06:34:04.688Z,18.9
2019-01-30T06:34:57.761Z,18.8
2019-01-30T06:35:44.571Z,18.8
2019-01-30T06:36:33.738Z,19.3
2019-01-30T06:37:27.061Z,19.8
2019-01-30T06:38:13.349Z,20.1
2019-01-30T06:39:03.532Z,20.4
2019-01-30T06:39:54.395Z,20.6
2019-01-30T06:40:44.557Z,20.6
2019-01-30T06:41:34.598Z,20.3
2019-01-30T06:42:24.994Z,19.9
2019-01-30T06:43:13.980Z,19.6
2019-01-30T06:44:04.257Z,19.4
2019-01-30T06:44:55.492Z,19.2
2019-01-30T06:45:45.152Z,19
2019-01-30T06:46:34.992Z,18.9
2019-01-30T06:47:25.197Z,18.8
2019-01-30T06:49:06.098Z,18.6
2019-01-30T06:49:55.785Z,18.5
2019-01-30T06:50:45.302Z,18.4
2019-01-30T06:51:35.011Z,18.3
2019-01-30T06:52:25.715Z,18.2
2019-01-30T06:53:15.519Z,18
2019-01-30T06:54:05.517Z,17.9
2019-01-30T06:54:54.727Z,17.8
2019-01-30T06:55:44.814Z,17.7
2019-01-30T06:56:35.687Z,17.6
2019-01-30T06:57:24.916Z,18.2
2019-01-30T06:58:15.257Z,18.8
2019-01-30T06:59:05.562Z,19.3
2019-01-30T06:59:55.706Z,19.7
2019-01-30T07:00:45.411Z,19.9
2019-01-30T07:01:34.736Z,20.2
2019-01-30T07:02:36.753Z,20.4
2019-01-30T07:03:16.664Z,20.4
2019-01-30T07:04:07.014Z,20.1
2019-01-30T07:06:33.062Z,18.5
2019-01-30T07:07:21.934Z,17.9
2019-01-30T07:08:12.706Z,17.4
2019-01-30T07:09:02.873Z,16.8
2019-01-30T07:09:52.396Z,16.4
2019-01-30T07:10:42.798Z,16.4
2019-01-30T07:11:33.143Z,16.8
2019-01-30T07:12:23.103Z,17.5
2019-01-30T07:13:12.378Z,18.1
2019-01-30T07:14:52.455Z,19.2
2019-01-30T07:15:42.630Z,19.6
2019-01-30T07:16:32.929Z,19.9
2019-01-30T07:17:23.168Z,20.3
2019-01-30T07:18:12.405Z,20.4
2019-01-30T07:19:03.676Z,20.6
2019-01-30T07:19:53.357Z,20.8
2019-01-30T07:20:42.390Z,20.9
2019-01-30T07:21:33.220Z,20.5
2019-01-30T07:22:23.617Z,20.1
2019-01-30T07:23:13.034Z,19.7
2019-01-30T07:24:03.972Z,19.4
2019-01-30T07:24:52.941Z,19.2
2019-01-30T07:25:44.396Z,18.9
2019-01-30T07:26:33.801Z,18.8
2019-01-30T07:28:13.940Z,18.6
2019-01-30T07:29:04.063Z,18.4
2019-01-30T07:29:53.763Z,18.4
2019-01-30T07:30:43.168Z,18.3
2019-01-30T07:31:34.627Z,18.1
2019-01-30T07:32:24.478Z,18
2019-01-30T07:33:14.278Z,17.8
2019-01-30T07:34:04.384Z,17.7
2019-01-30T07:34:53.055Z,17.6
2019-01-30T07:35:43.895Z,17.6
2019-01-30T07:36:34.803Z,18.3
2019-01-30T07:37:23.883Z,18.9
2019-01-30T07:38:13.786Z,19.4
2019-01-30T07:39:04.387Z,19.8
2019-01-30T07:39:55.110Z,20.2
2019-01-30T07:40:43.992Z,20.4
2019-01-30T07:41:34.885Z,20.6
2019-01-30T07:42:25.170Z,20.8
2019-01-30T07:43:14.662Z,21
2019-01-30T07:44:04.745Z,20.7
2019-01-30T07:44:59.350Z,20.2
2019-01-30T07:45:45.253Z,19.8
2019-01-30T07:46:34.345Z,19.6
2019-01-30T07:47:24.417Z,19.3
2019-01-30T07:48:15.252Z,19.1
2019-01-30T07:49:04.247Z,18.9
2019-01-30T07:49:54.910Z,18.8
2019-01-30T07:51:34.539Z,18.5
2019-01-30T07:52:25.329Z,18.4
2019-01-30T07:53:15.618Z,18.4
2019-01-30T07:54:05.816Z,18.3
2019-01-30T07:54:55.184Z,18.2
2019-01-30T07:55:45.904Z,18.1
2019-01-30T07:56:37.728Z,18
2019-01-30T07:57:26.206Z,17.9
2019-01-30T07:58:15.989Z,17.8
2019-01-30T07:59:06.056Z,17.9
2019-01-30T07:59:56.569Z,18.4
2019-01-30T08:00:45.594Z,18.9
2019-01-30T08:01:36.871Z,19.4
2019-01-30T08:02:28.509Z,19.9
2019-01-30T08:03:16.636Z,20.1
2019-01-30T08:04:06.639Z,20.4
2019-01-30T08:04:55.316Z,20.6
2019-01-30T08:05:46.208Z,20.8
2019-01-30T08:06:35.718Z,20.9
2019-01-30T08:07:28.229Z,21
2019-01-30T08:08:16.406Z,20.6
2019-01-30T08:09:06.436Z,20.1
2019-01-30T08:09:56.288Z,19.8
2019-01-30T08:10:46.636Z,19.5
2019-01-30T08:11:39.031Z,19.3
2019-01-30T08:12:26.750Z,19
2019-01-30T08:13:16.481Z,18.9
2019-01-30T08:14:10.373Z,18.8
2019-01-30T08:14:56.556Z,18.6
2019-01-30T08:15:46.928Z,18.6
2019-01-30T08:16:37.095Z,18.4
2019-01-30T08:17:29.723Z,18.3
2019-01-30T08:18:17.370Z,18.3
2019-01-30T08:19:07.152Z,18.2
2019-01-30T08:19:59.308Z,18.1
2019-01-30T08:20:47.621Z,17.9
2019-01-30T08:21:37.678Z,17.9
2019-01-30T08:22:28.174Z,17.8
2019-01-30T08:23:20.730Z,17.9
2019-01-30T08:24:11.799Z,18.6
2019-01-30T08:25:00.619Z,19.1
2019-01-30T08:25:50.536Z,19.6
2019-01-30T08:26:41.374Z,19.9
2019-01-30T08:27:30.682Z,20.3
2019-01-30T08:28:23.653Z,20.5
2019-01-30T08:29:11.526Z,20.6
2019-01-30T08:30:01.101Z,20.8
2019-01-30T08:30:51.621Z,20.9
2019-01-30T08:31:41.062Z,20.9
2019-01-30T08:32:33.724Z,20.4
2019-01-30T08:33:22.065Z,20
2019-01-30T08:34:08.572Z,19.7
2019-01-30T08:34:58.769Z,19.4
2019-01-30T08:35:48.128Z,19.2
2019-01-30T08:36:38.661Z,19
2019-01-30T08:37:28.729Z,18.9
2019-01-30T08:39:09.045Z,18.6
2019-01-30T08:39:58.879Z,18.5
2019-01-30T08:40:48.606Z,18.4
2019-01-30T08:41:39.308Z,18.4
2019-01-30T08:42:29.263Z,18.3
2019-01-30T08:43:18.483Z,18.2
2019-01-30T08:44:08.258Z,18.1
2019-01-30T08:44:59.313Z,18
2019-01-30T08:45:48.976Z,17.9
2019-01-30T08:46:39.484Z,17.9
2019-01-30T08:47:29.410Z,18.1
2019-01-30T08:48:18.413Z,18.6
2019-01-30T08:49:09.723Z,19.2
2019-01-30T08:49:58.663Z,19.7
2019-01-30T08:50:49.286Z,20
2019-01-30T08:51:39.891Z,20.3
2019-01-30T08:52:29.253Z,20.5
2019-01-30T08:53:19.823Z,20.7
2019-01-30T08:54:09.151Z,20.8
2019-01-30T08:54:59.091Z,21
2019-01-30T08:55:50.458Z,21.1
2019-01-30T08:57:00.297Z,20.6
2019-01-30T08:57:30.287Z,20
2019-01-30T08:58:20.093Z,19.8
2019-01-30T08:59:12.994Z,19.5
2019-01-30T08:59:58.997Z,19.3
2019-01-30T09:00:49.708Z,19.1
2019-01-30T09:01:40.610Z,18.9
2019-01-30T09:02:29.851Z,18.8
2019-01-30T09:03:23.378Z,18.6
2019-01-30T09:04:13.465Z,18.5
2019-01-30T09:05:00.333Z,18.4
2019-01-30T09:05:50.710Z,18.3
2019-01-30T09:06:40.769Z,18.3
2019-01-30T09:07:30.736Z,18.2
2019-01-30T09:08:21.232Z,18.1
2019-01-30T09:09:10.612Z,18
2019-01-30T09:10:00.907Z,17.9
2019-01-30T09:10:49.819Z,17.9
2019-01-30T09:11:40.701Z,18.1
2019-01-30T09:12:30.540Z,18.6
2019-01-30T09:13:20.704Z,19.2
2019-01-30T09:14:10.859Z,19.7
2019-01-30T09:15:01.320Z,20
2019-01-30T09:15:50.712Z,20.3
2019-01-30T09:16:41.315Z,20.5
2019-01-30T09:17:31.122Z,20.7
2019-01-30T09:18:22.024Z,20.9
2019-01-30T09:19:11.626Z,21
2019-01-30T09:20:51.936Z,20.6
2019-01-30T09:21:41.216Z,20.2
2019-01-30T09:22:31.249Z,19.8
2019-01-30T09:23:21.836Z,19.5
2019-01-30T09:24:12.490Z,19.2
2019-01-30T09:25:02.281Z,19
2019-01-30T09:25:51.971Z,18.8
2019-01-30T09:26:41.498Z,18.8
2019-01-30T09:28:22.133Z,18.6
2019-01-30T09:29:11.358Z,18.5
2019-01-30T09:30:01.335Z,18.4
2019-01-30T09:30:52.268Z,18.3
2019-01-30T09:31:42.783Z,18.3
2019-01-30T09:32:32.270Z,18.2
2019-01-30T09:33:33.254Z,18.1
2019-01-30T09:34:12.628Z,18
2019-01-30T09:35:01.902Z,18
2019-01-30T09:35:52.475Z,18.3
2019-01-30T09:36:42.863Z,18.9
2019-01-30T09:37:35.467Z,19.4
2019-01-30T09:38:22.150Z,19.9
2019-01-30T09:39:12.807Z,20.2
2019-01-30T09:40:03.070Z,20.5
2019-01-30T09:40:52.772Z,20.8
2019-01-30T09:41:43.530Z,20.9
2019-01-30T09:42:33.418Z,21.1
2019-01-30T09:43:23.112Z,21.3
2019-01-30T09:44:12.915Z,21.1
2019-01-30T09:45:03.544Z,20.6
2019-01-30T09:45:52.715Z,20.1
2019-01-30T09:46:44.075Z,19.8
2019-01-30T09:47:33.492Z,19.5
2019-01-30T09:48:22.667Z,19.3
2019-01-30T09:49:13.938Z,19.1
2019-01-30T09:50:04.019Z,19
2019-01-30T09:50:52.544Z,18.9
2019-01-30T09:51:43.784Z,18.8
2019-01-30T09:52:35.644Z,18.6
2019-01-30T09:53:24.325Z,18.6
2019-01-30T09:54:13.559Z,18.5
2019-01-30T09:55:03.816Z,18.4
2019-01-30T09:55:54.024Z,18.3
2019-01-30T09:56:44.109Z,18.2
2019-01-30T09:57:34.659Z,18.1
2019-01-30T09:58:26.899Z,18
2019-01-30T09:59:13.688Z,18.1
2019-01-30T10:00:04.567Z,18.6
2019-01-30T10:00:54.364Z,19.2
2019-01-30T10:01:44.521Z,19.7
2019-01-30T10:02:34.021Z,20.1
2019-01-30T10:03:24.251Z,20.4
2019-01-30T10:04:13.813Z,20.7
2019-01-30T10:05:04.148Z,20.8
2019-01-30T10:07:33.095Z,21.3
2019-01-30T10:08:25.585Z,20.8
2019-01-30T10:09:12.420Z,20.3
2019-01-30T10:10:02.443Z,19.9
2019-01-30T10:10:52.265Z,19.6
2019-01-30T10:11:41.393Z,19.4
2019-01-30T10:12:32.218Z,19.3
2019-01-30T10:13:22.413Z,19.1
2019-01-30T10:14:12.565Z,18.9
2019-01-30T10:15:02.373Z,18.8
2019-01-30T10:16:42.441Z,18.6
2019-01-30T10:17:35.883Z,18.5
2019-01-30T10:18:23.145Z,18.4
2019-01-30T10:19:12.845Z,18.3
2019-01-30T10:20:03.193Z,18.3
2019-01-30T10:20:53.627Z,18.1
2019-01-30T10:21:43.262Z,18.1
2019-01-30T10:22:33.144Z,18.1
2019-01-30T10:23:22.990Z,18.4
2019-01-30T10:24:12.788Z,19
2019-01-30T10:25:03.075Z,19.6
2019-01-30T10:25:53.582Z,20
2019-01-30T10:26:43.079Z,20.3
2019-01-30T10:27:33.204Z,20.6
2019-01-30T10:28:24.951Z,20.8
2019-01-30T10:29:13.625Z,21
2019-01-30T10:30:06.343Z,21.2
2019-01-30T10:30:53.165Z,21.3
2019-01-30T10:31:43.989Z,20.9
2019-01-30T10:32:33.780Z,20.4
2019-01-30T10:33:24.362Z,20
2019-01-30T10:34:13.585Z,19.7
2019-01-30T10:35:03.832Z,19.5
2019-01-30T10:35:53.455Z,19.3
2019-01-30T10:36:44.303Z,19.1
2019-01-30T10:37:33.532Z,19
2019-01-30T10:38:24.638Z,18.9
2019-01-30T10:39:13.837Z,18.8
2019-01-30T10:40:04.512Z,18.6
2019-01-30T10:40:54.437Z,18.6
2019-01-30T10:41:44.639Z,18.4
2019-01-30T10:42:34.173Z,18.4
2019-01-30T10:43:24.827Z,18.3
2019-01-30T10:44:14.392Z,18.2
2019-01-30T10:45:05.205Z,18.1
2019-01-30T10:45:54.432Z,18.2
2019-01-30T10:46:44.521Z,18.3
2019-01-30T10:47:33.944Z,18.9
2019-01-30T10:48:24.824Z,19.4
2019-01-30T10:49:15.611Z,20
2019-01-30T10:50:04.255Z,20.3
2019-01-30T10:50:55.109Z,20.6
2019-01-30T10:51:44.601Z,20.8
2019-01-30T10:52:35.259Z,21.1
2019-01-30T10:53:25.024Z,21.3
2019-01-30T10:54:15.281Z,21.4
2019-01-30T10:55:05.884Z,20.9
2019-01-30T10:55:55.409Z,20.4
2019-01-30T10:56:46.008Z,20
2019-01-30T10:57:35.766Z,19.8
2019-01-30T10:58:25.331Z,19.5
2019-01-30T10:59:16.268Z,19.3
2019-01-30T11:00:05.851Z,19.1
2019-01-30T11:00:56.241Z,18.9
2019-01-30T11:01:46.096Z,18.8
2019-01-30T11:02:35.263Z,18.8
2019-01-30T11:03:25.480Z,18.6
2019-01-30T11:04:16.796Z,18.6
2019-01-30T11:05:05.738Z,18.4
2019-01-30T11:05:56.076Z,18.4
2019-01-30T11:06:46.441Z,18.3
2019-01-30T11:07:36.463Z,18.2
2019-01-30T11:08:26.063Z,18.1
2019-01-30T11:09:15.347Z,18.1
2019-01-30T11:10:06.103Z,17.9
2019-01-30T11:11:10.145Z,17.9
2019-01-30T11:11:47.013Z,17.8
2019-01-30T11:12:36.000Z,17.8
2019-01-30T11:13:26.392Z,18.1
2019-01-30T11:14:16.100Z,18.9
2019-01-30T11:15:09.025Z,19.6
2019-01-30T11:15:56.038Z,20.2
2019-01-30T11:16:47.029Z,20.5
2019-01-30T11:17:37.152Z,20.8
2019-01-30T11:18:26.949Z,21
2019-01-30T11:19:16.710Z,21.2
2019-01-30T11:20:07.633Z,21.4
2019-01-30T11:20:57.415Z,21.3
2019-01-30T11:21:47.210Z,20.8
2019-01-30T11:22:37.508Z,20.4
2019-01-30T11:23:26.704Z,20
2019-01-30T11:24:16.824Z,19.7
2019-01-30T11:25:10.176Z,19.4
2019-01-30T11:26:00.369Z,19.3
2019-01-30T11:26:47.354Z,19.1
2019-01-30T11:27:37.346Z,19
2019-01-30T11:28:27.652Z,18.9
2019-01-30T11:29:16.922Z,18.8
2019-01-30T11:30:57.836Z,18.6
2019-01-30T11:31:47.170Z,18.4
2019-01-30T11:32:38.765Z,18.4
2019-01-30T11:33:28.298Z,18.3
2019-01-30T11:34:17.193Z,18.2
2019-01-30T11:35:07.368Z,18.1
2019-01-30T11:35:58.998Z,18.1
2019-01-30T11:36:48.528Z,18